Time;durP1;ratioP1;P1;durP2;ratioP2;P2;SDS_P1;SDS_P2;PMS_P1;PMS_P2;Temp;Humidity;BMP_temperature;BMP_pressure;BME280_temperature;BME280_humidity;BME280_pressure;Samples;Min_cycle;Max_cycle;Signal;HPM_P1;HPM_P2
2021/07/30 00:02:20;;;;;;;6.72;4.15;;;;;;;18.25;47.51;100987.06;4924702;28;124178;-71
2021/07/30 00:04:48;;;;;;;7.63;4.10;;;;;;;18.23;47.65;100987.22;4921761;28;123898;-71
2021/07/30 00:07:15;;;;;;;8.40;4.20;;;;;;;18.22;47.74;100987.31;4925504;28;114256;-71
2021/07/30 00:09:42;;;;;;;7.68;4.07;;;;;;;18.21;47.77;100986.44;4919945;28;114704;-71
2021/07/30 00:12:09;;;;;;;11.68;4.30;;;;;;;18.19;47.88;100988.38;4924316;28;123565;-71
2021/07/30 00:14:36;;;;;;;6.40;3.97;;;;;;;18.18;47.84;100980.47;4928782;28;123974;-71
2021/07/30 00:17:04;;;;;;;8.23;4.53;;;;;;;18.17;47.85;100984.13;4927919;28;114592;-71
2021/07/30 00:19:33;;;;;;;7.65;4.00;;;;;;;18.15;47.86;100980.69;4926361;28;113198;-71
2021/07/30 00:22:00;;;;;;;8.75;4.05;;;;;;;18.13;47.95;100977.28;4923680;28;122956;-71
2021/07/30 00:24:27;;;;;;;8.85;4.57;;;;;;;18.09;48.04;100985.53;4928121;28;124586;-71
2021/07/30 00:26:54;;;;;;;9.40;4.78;;;;;;;18.08;47.90;100981.16;4924726;28;114461;-71
2021/07/30 00:29:21;;;;;;;8.23;4.90;;;;;;;18.07;48.11;100984.81;4923511;28;113932;-71
2021/07/30 00:31:48;;;;;;;8.52;4.20;;;;;;;18.05;48.17;100978.69;4921030;28;124818;-71
2021/07/30 00:34:15;;;;;;;9.88;4.50;;;;;;;18.03;48.09;100977.97;4923696;28;124150;-71
2021/07/30 00:36:43;;;;;;;7.85;4.22;;;;;;;18.03;48.07;100977.97;4924858;28;115964;-71
2021/07/30 00:39:10;;;;;;;8.95;4.05;;;;;;;18.00;48.20;100978.19;4926272;28;113406;-71
2021/07/30 00:41:39;;;;;;;8.38;4.50;;;;;;;17.96;48.19;100982.06;4921194;28;123740;-71
2021/07/30 00:44:07;;;;;;;10.15;4.60;;;;;;;17.92;48.54;100964.50;4929052;28;123858;-71
2021/07/30 00:46:35;;;;;;;8.15;4.75;;;;;;;17.90;48.41;100969.13;4927034;28;114184;-71
2021/07/30 00:49:02;;;;;;;9.90;4.50;;;;;;;17.88;48.63;100976.44;4926766;28;114504;-71
2021/07/30 00:51:30;;;;;;;9.48;4.60;;;;;;;17.87;48.74;100970.19;4928175;28;125029;-71
2021/07/30 00:53:57;;;;;;;9.75;4.90;;;;;;;17.86;48.85;100970.34;4926230;28;122866;-71
2021/07/30 00:56:24;;;;;;;8.60;4.30;;;;;;;17.86;48.85;100970.34;4927900;28;113879;-71
2021/07/30 00:58:52;;;;;;;9.50;4.90;;;;;;;17.84;48.87;100972.25;4928031;28;114058;-71
2021/07/30 01:01:19;;;;;;;10.55;4.32;;;;;;;17.83;48.90;100975.88;4930655;28;123793;-71
2021/07/30 01:03:46;;;;;;;10.60;4.70;;;;;;;17.82;49.12;100979.50;4929530;28;124874;-71
2021/07/30 01:06:13;;;;;;;6.13;3.83;;;;;;;17.82;49.11;100968.78;4935068;28;114914;-71
2021/07/30 01:08:40;;;;;;;7.38;4.25;;;;;;;17.82;48.98;100966.97;4932545;28;114160;-71
2021/07/30 01:11:08;;;;;;;8.93;5.10;;;;;;;17.82;49.05;100974.16;4928040;28;124204;-71
2021/07/30 01:13:35;;;;;;;8.27;4.63;;;;;;;17.82;49.29;100979.50;4929352;28;124047;-71
2021/07/30 01:16:02;;;;;;;9.98;4.97;;;;;;;17.80;49.25;100971.59;4928070;28;114519;-71
2021/07/30 01:18:29;;;;;;;8.07;4.25;;;;;;;17.80;49.32;100978.75;4929122;28;114185;-71
2021/07/30 01:21:07;;;;;;;9.88;4.53;;;;;;;17.78;49.42;100973.53;4927853;28;127325;-71
2021/07/30 01:23:34;;;;;;;9.52;4.55;;;;;;;17.80;48.96;100970.72;4924962;28;123713;-71
2021/07/30 01:26:02;;;;;;;7.22;4.35;;;;;;;17.80;49.48;100970.72;4927903;28;114873;-71
2021/07/30 01:28:30;;;;;;;8.10;4.70;;;;;;;17.80;49.50;100976.09;4932365;28;115065;-71
2021/07/30 01:31:00;;;;;;;10.95;4.50;;;;;;;17.79;49.58;100966.34;4928804;28;124366;-71
2021/07/30 01:33:27;;;;;;;8.38;4.50;;;;;;;17.80;49.46;100965.38;4923296;28;122776;-71
2021/07/30 01:35:54;;;;;;;10.07;4.78;;;;;;;17.79;49.53;100966.34;4927437;28;113047;-71
2021/07/30 01:38:21;;;;;;;8.18;4.85;;;;;;;17.79;49.61;100969.03;4924974;28;113948;-71
2021/07/30 01:40:48;;;;;;;9.70;5.15;;;;;;;17.78;49.51;100967.31;4929769;28;124369;-71
2021/07/30 01:43:15;;;;;;;11.15;4.53;;;;;;;17.78;49.58;100967.31;4928780;28;122846;-71
2021/07/30 01:45:42;;;;;;;8.70;4.75;;;;;;;17.76;49.59;100958.53;4931815;28;114500;-71
2021/07/30 01:48:09;;;;;;;10.43;5.03;;;;;;;17.74;49.71;100961.31;4927570;28;114122;-71
2021/07/30 01:50:36;;;;;;;7.18;4.40;;;;;;;17.74;49.73;100963.16;4928935;28;124705;-71
2021/07/30 01:53:04;;;;;;;6.50;4.47;;;;;;;17.73;49.79;100970.34;4928508;28;124519;-71
2021/07/30 01:55:31;;;;;;;8.57;4.60;;;;;;;17.71;49.72;100959.72;4931435;28;114933;-71
2021/07/30 01:57:58;;;;;;;9.13;4.57;;;;;;;17.73;49.87;100966.81;4933298;28;114307;-71
2021/07/30 02:00:25;;;;;;;8.45;4.75;;;;;;;17.71;49.90;100957.06;4927543;28;125303;-71
2021/07/30 02:02:52;;;;;;;8.38;4.47;;;;;;;17.71;49.94;100962.41;4930405;28;124927;-71
2021/07/30 02:05:19;;;;;;;9.52;4.53;;;;;;;17.71;50.04;100957.06;4926858;28;113521;-71
2021/07/30 02:07:46;;;;;;;8.15;4.65;;;;;;;17.70;49.95;100955.31;4924409;28;113965;-71
2021/07/30 02:10:13;;;;;;;9.18;5.18;;;;;;;17.69;50.05;100953.63;4923133;28;124534;-71
2021/07/30 02:15:26;;;;;;;9.25;4.72;;;;;;;17.66;49.98;100948.47;4918455;28;114744;-71
2021/07/30 02:17:53;;;;;;;7.57;4.40;;;;;;;17.64;50.06;100945.06;4924432;28;115188;-71
2021/07/30 02:20:20;;;;;;;7.47;4.55;;;;;;;17.64;50.13;100950.41;4924298;28;123126;-71
2021/07/30 02:22:47;;;;;;;9.95;4.50;;;;;;;17.62;50.20;100947.00;4926672;28;123863;-71
2021/07/30 02:25:14;;;;;;;9.38;4.47;;;;;;;17.61;50.33;100950.66;4921596;28;114152;-71
2021/07/30 02:27:41;;;;;;;8.15;4.72;;;;;;;17.60;50.29;100945.41;4944355;28;114585;-70
2021/07/30 02:30:09;;;;;;;12.75;4.70;;;;;;;17.60;50.23;100953.44;4916895;28;123698;-71
2021/07/30 02:32:36;;;;;;;10.60;5.28;;;;;;;17.58;50.27;100945.53;4932040;28;124130;-71
2021/07/30 02:35:04;;;;;;;11.23;5.47;;;;;;;17.57;50.44;100942.94;4923399;28;114452;-71
2021/07/30 02:37:31;;;;;;;9.57;4.65;;;;;;;17.55;50.46;100945.72;4922646;28;114656;-71
2021/07/30 02:39:58;;;;;;;11.23;4.55;;;;;;;17.54;50.44;100946.72;4928553;28;124208;-70
2021/07/30 02:42:25;;;;;;;10.35;4.78;;;;;;;17.52;50.66;100941.47;4925987;28;123818;-71
2021/07/30 02:44:52;;;;;;;8.48;4.72;;;;;;;17.51;50.67;100933.53;4929520;28;112828;-71
2021/07/30 02:47:19;;;;;;;11.55;5.15;;;;;;;17.51;50.68;100938.91;4928275;28;112817;-71
2021/07/30 02:49:46;;;;;;;8.63;4.72;;;;;;;17.48;50.64;100939.13;4924879;28;124857;-71
2021/07/30 02:52:13;;;;;;;8.43;4.55;;;;;;;17.45;50.63;100944.72;4931942;28;123733;-71
2021/07/30 02:54:40;;;;;;;10.10;4.97;;;;;;;17.44;50.70;100937.63;4926550;28;114409;-71
2021/07/30 02:57:07;;;;;;;10.25;4.80;;;;;;;17.44;50.81;100929.59;4926945;28;114236;-71
2021/07/30 02:59:35;;;;;;;8.75;4.63;;;;;;;17.42;50.71;100929.72;4926579;28;123966;-71
2021/07/30 03:02:02;;;;;;;7.65;5.03;;;;;;;17.42;50.86;100934.22;4925264;28;123797;-71
2021/07/30 03:04:29;;;;;;;11.80;5.07;;;;;;;17.40;51.09;100930.78;4919970;28;115051;-71
2021/07/30 03:06:56;;;;;;;8.25;4.50;;;;;;;17.40;50.98;100922.75;4926404;28;115027;-71
2021/07/30 03:09:23;;;;;;;9.07;5.05;;;;;;;17.37;50.92;100921.16;4926741;28;123400;-71
2021/07/30 03:11:51;;;;;;;8.43;4.88;;;;;;;17.35;51.07;100922.22;4926649;28;124403;-71
2021/07/30 03:14:18;;;;;;;10.48;4.93;;;;;;;17.35;51.28;100922.22;4926849;28;114949;-70
2021/07/30 03:16:45;;;;;;;10.23;4.97;;;;;;;17.34;50.99;100915.19;4929363;28;114262;-71
2021/07/30 03:19:12;;;;;;;9.55;4.60;;;;;;;17.30;51.13;100912.72;4931103;28;124350;-71
2021/07/30 03:21:39;;;;;;;9.05;5.00;;;;;;;17.29;51.15;100907.47;4931002;28;123800;-71
2021/07/30 03:24:06;;;;;;;8.10;5.10;;;;;;;17.27;51.22;100910.28;4933657;28;114997;-71
2021/07/30 03:26:33;;;;;;;9.38;4.57;;;;;;;17.25;51.18;100904.19;4931175;28;114104;-71
2021/07/30 03:29:00;;;;;;;9.40;4.55;;;;;;;17.23;51.19;100900.72;4929480;28;123433;-71
2021/07/30 03:31:29;;;;;;;8.23;4.38;;;;;;;17.21;51.50;100905.34;4928120;28;124635;-71
2021/07/30 03:33:56;;;;;;;9.13;4.68;;;;;;;17.20;51.29;100903.66;4925816;28;114248;-70
2021/07/30 03:36:23;;;;;;;7.53;4.72;;;;;;;17.20;51.36;100898.28;4922545;28;114038;-71
2021/07/30 03:38:50;;;;;;;7.70;4.95;;;;;;;17.19;51.41;100899.25;4930275;28;123952;-71
2021/07/30 03:41:17;;;;;;;8.82;4.82;;;;;;;17.18;51.42;100900.22;4922684;28;124113;-70
2021/07/30 03:43:44;;;;;;;9.45;5.15;;;;;;;17.15;51.60;100889.72;4927922;28;115105;-70
2021/07/30 03:46:12;;;;;;;8.27;4.95;;;;;;;17.13;51.68;100891.66;4927708;28;114140;-71
2021/07/30 03:48:39;;;;;;;10.27;4.50;;;;;;;17.11;51.78;100893.59;4924158;28;123214;-71
2021/07/30 03:51:06;;;;;;;8.07;4.70;;;;;;;17.11;51.70;100898.94;4924171;28;123787;-71
2021/07/30 03:53:33;;;;;;;11.52;5.07;;;;;;;17.10;51.73;100897.22;4928648;28;114159;-70
2021/07/30 03:56:00;;;;;;;8.00;4.57;;;;;;;17.09;51.92;100895.53;4927104;28;115249;-71
2021/07/30 03:58:27;;;;;;;10.38;5.05;;;;;;;17.07;52.07;100898.31;4926700;28;124437;-71
2021/07/30 04:00:55;;;;;;;11.25;4.97;;;;;;;17.06;52.19;100898.41;4922808;28;123824;-71
2021/07/30 04:03:22;;;;;;;7.97;4.70;;;;;;;17.05;52.20;100891.38;4924156;28;114004;-70
2021/07/30 04:05:49;;;;;;;8.73;4.90;;;;;;;17.04;52.27;100886.97;4927707;28;114774;-71
2021/07/30 04:08:16;;;;;;;11.68;5.07;;;;;;;17.04;52.43;100893.16;4923597;28;124960;-71
2021/07/30 04:10:43;;;;;;;7.25;4.85;;;;;;;17.05;52.44;100894.06;4921138;28;124068;-71
2021/07/30 04:13:11;;;;;;;9.10;5.10;;;;;;;17.05;52.41;100888.69;4928445;28;114578;-71
2021/07/30 04:15:38;;;;;;;9.80;4.72;;;;;;;17.06;52.33;100893.91;4922517;28;114256;-71
2021/07/30 04:18:05;;;;;;;9.90;4.78;;;;;;;17.07;52.47;100887.59;4911035;28;123830;-71
2021/07/30 04:20:32;;;;;;;9.25;4.88;;;;;;;17.07;52.49;100892.13;4924784;28;123228;-71
2021/07/30 04:22:59;;;;;;;9.95;5.03;;;;;;;17.06;52.36;100887.72;4928337;28;114241;-71
2021/07/30 04:25:26;;;;;;;8.25;5.03;;;;;;;17.06;52.43;100890.38;4925374;28;115120;-71
2021/07/30 04:27:53;;;;;;;10.18;5.10;;;;;;;17.04;52.54;100893.16;4927564;28;123924;-71
2021/07/30 04:30:21;;;;;;;12.68;5.00;;;;;;;17.03;52.63;100890.63;4927218;28;124384;-71
2021/07/30 04:32:48;;;;;;;8.27;4.63;;;;;;;17.01;52.60;100888.06;4922914;28;113092;-71
2021/07/30 04:35:15;;;;;;;7.68;5.10;;;;;;;17.00;52.70;100885.50;4929007;28;113778;-71
2021/07/30 04:37:42;;;;;;;12.80;5.25;;;;;;;16.99;52.96;100889.09;4925034;28;124361;-71
2021/07/30 04:40:09;;;;;;;8.23;5.10;;;;;;;17.00;52.87;100888.16;4907684;28;121562;-71
2021/07/30 04:42:36;;;;;;;9.23;4.35;;;;;;;17.01;53.20;100887.19;4924172;28;115191;-71
2021/07/30 04:45:04;;;;;;;8.52;4.93;;;;;;;17.03;53.27;100874.56;4925074;28;114812;-71
2021/07/30 04:47:31;;;;;;;10.65;5.05;;;;;;;17.04;53.53;100881.63;4919175;28;123286;-71
2021/07/30 04:49:58;;;;;;;8.30;4.78;;;;;;;17.07;53.55;100876.06;4921328;28;122518;-71
2021/07/30 04:52:25;;;;;;;9.35;4.47;;;;;;;17.11;53.54;100874.88;4927805;28;114239;-71
2021/07/30 04:54:52;;;;;;;11.00;4.90;;;;;;;17.16;53.77;100880.75;4921150;28;113751;-71
2021/07/30 04:57:19;;;;;;;9.65;4.88;;;;;;;17.22;53.80;100864.25;4921834;28;124030;-71
2021/07/30 04:59:46;;;;;;;7.68;4.82;;;;;;;17.28;53.98;100863.78;4921733;28;123057;-71
2021/07/30 05:02:13;;;;;;;11.48;5.07;;;;;;;17.35;54.10;100861.53;4930519;28;114560;-71
2021/07/30 05:04:41;;;;;;;8.18;4.55;;;;;;;17.42;54.11;100860.13;4926604;28;112927;-71
2021/07/30 05:07:08;;;;;;;7.90;4.60;;;;;;;17.49;54.25;100857.81;4927583;28;124125;-71
2021/07/30 05:09:38;;;;;;;9.10;5.07;;;;;;;17.57;54.04;100863.44;4930153;28;124379;-71
2021/07/30 05:12:05;;;;;;;11.43;4.47;;;;;;;17.64;54.06;100864.72;4926860;28;113101;-71
2021/07/30 05:14:33;;;;;;;9.40;4.57;;;;;;;17.73;54.04;100862.34;4928225;28;113326;-71
2021/07/30 05:17:00;;;;;;;8.80;4.68;;;;;;;17.78;54.07;100861.03;4920875;28;123819;-71
2021/07/30 05:19:27;;;;;;;9.95;4.88;;;;;;;17.87;54.15;100859.50;4925626;28;123803;-71
2021/07/30 05:21:54;;;;;;;10.23;5.15;;;;;;;17.94;53.99;100855.38;4927955;28;114442;-71
2021/07/30 05:24:21;;;;;;;9.32;4.68;;;;;;;18.02;54.13;100857.47;4928298;28;112556;-71
2021/07/30 05:26:48;;;;;;;9.63;4.93;;;;;;;18.12;54.05;100865.66;4925893;28;124355;-71
2021/07/30 05:29:15;;;;;;;10.15;5.40;;;;;;;18.20;54.05;100860.59;4927646;28;123509;-71
2021/07/30 05:31:42;;;;;;;10.70;5.20;;;;;;;18.29;54.22;100859.88;4924383;28;114572;-71
2021/07/30 05:34:09;;;;;;;8.63;5.30;;;;;;;18.36;54.01;100855.72;4927548;28;114946;-71
2021/07/30 05:36:36;;;;;;;9.48;5.28;;;;;;;18.43;54.01;100862.31;4920145;28;122815;-70
2021/07/30 05:39:03;;;;;;;11.63;5.90;;;;;;;18.51;54.00;100858.19;4930261;28;124271;-70
2021/07/30 05:41:30;;;;;;;11.50;6.00;;;;;;;18.57;54.01;100846.97;4930160;28;114506;-71
2021/07/30 05:43:57;;;;;;;9.35;5.72;;;;;;;18.64;53.96;100842.84;4932641;28;113675;-71
2021/07/30 05:46:25;;;;;;;8.40;5.68;;;;;;;18.72;53.89;100843.06;4921241;28;123404;-71
2021/07/30 05:48:56;;;;;;;10.20;6.13;;;;;;;18.79;53.86;100846.13;4928314;28;123852;-70
2021/07/30 05:51:23;;;;;;;12.50;6.53;;;;;;;18.86;53.81;100852.75;4923367;28;114372;-70
2021/07/30 05:53:51;;;;;;;12.07;6.63;;;;;;;18.94;53.67;100849.47;4933078;28;114215;-70
2021/07/30 05:56:18;;;;;;;10.85;6.63;;;;;;;19.01;53.84;100845.31;4930958;28;124643;-71
2021/07/30 05:58:45;;;;;;;10.25;7.10;;;;;;;19.08;53.72;100849.22;4931840;28;124178;-71
2021/07/30 06:01:13;;;;;;;10.02;6.43;;;;;;;19.15;53.66;100847.72;4922729;28;114589;-70
2021/07/30 06:03:45;;;;;;;10.23;6.40;;;;;;;19.22;53.77;100848.91;4921436;28;113997;-70
2021/07/30 06:06:12;;;;;;;14.10;6.50;;;;;;;19.32;53.57;100848.19;4924893;28;124802;-70
2021/07/30 06:08:40;;;;;;;12.15;6.88;;;;;;;19.40;53.62;100840.31;4929580;28;124251;-71
2021/07/30 06:11:07;;;;;;;10.07;6.50;;;;;;;19.47;53.37;100840.69;4929210;28;114870;-71
2021/07/30 06:13:34;;;;;;;8.88;6.35;;;;;;;19.55;53.59;100838.22;4927253;28;114030;-70
2021/07/30 06:16:01;;;;;;;12.07;6.55;;;;;;;19.64;53.50;100838.28;4927323;28;125909;-70
2021/07/30 06:18:28;;;;;;;10.55;5.80;;;;;;;19.76;53.53;100835.59;4926801;28;125242;-71
2021/07/30 06:20:55;;;;;;;11.50;6.18;;;;;;;19.86;53.39;100831.16;4930743;28;115262;-71
2021/07/30 06:23:23;;;;;;;9.40;6.07;;;;;;;19.95;53.33;100830.38;4928459;28;115547;-71
2021/07/30 06:25:50;;;;;;;12.40;6.10;;;;;;;20.06;53.40;100828.59;4928079;28;124029;-71
2021/07/30 06:28:17;;;;;;;10.68;6.63;;;;;;;20.17;53.39;100828.53;4928909;28;123428;-72
2021/07/30 06:30:44;;;;;;;11.18;6.28;;;;;;;20.28;53.13;100825.78;4931208;28;113165;-73
2021/07/30 06:33:11;;;;;;;10.27;6.75;;;;;;;20.39;53.18;100824.84;4931232;28;113524;-73
2021/07/30 06:35:41;;;;;;;9.25;5.65;;;;;;;20.54;53.18;100819.97;4932355;28;124188;-72
2021/07/30 06:38:08;;;;;;;11.98;6.28;;;;;;;20.68;53.03;100827.72;4933166;28;124049;-73
2021/07/30 06:40:35;;;;;;;10.40;6.22;;;;;;;20.82;52.70;100817.59;4931866;28;114353;-73
2021/07/30 06:43:03;;;;;;;12.05;6.43;;;;;;;20.96;52.97;100809.97;4930971;28;113689;-72
2021/07/30 06:45:30;;;;;;;14.45;6.88;;;;;;;21.08;52.61;100817.91;4932002;28;123859;-72
2021/07/30 06:47:57;;;;;;;9.52;6.75;;;;;;;21.19;52.54;100815.97;4932319;28;123731;-72
2021/07/30 06:50:24;;;;;;;13.63;6.50;;;;;;;21.31;52.55;100818.56;4932807;28;114287;-73
2021/07/30 06:52:51;;;;;;;12.98;7.00;;;;;;;21.44;52.41;100823.69;4921952;28;114089;-73
2021/07/30 06:55:19;;;;;;;13.30;6.90;;;;;;;21.52;52.18;100811.22;4914021;28;124106;-73
2021/07/30 06:57:46;;;;;;;12.02;6.28;;;;;;;21.63;52.07;100806.69;4932471;28;123731;-73
2021/07/30 07:00:13;;;;;;;11.90;6.88;;;;;;;21.73;52.06;100819.16;4916545;28;113716;-73
2021/07/30 07:02:40;;;;;;;10.70;6.30;;;;;;;21.84;51.99;100815.47;4913317;28;112980;-73
2021/07/30 07:05:09;;;;;;;12.38;6.47;;;;;;;21.93;51.55;100813.78;4915342;28;124085;-73
2021/07/30 07:07:36;;;;;;;11.98;6.63;;;;;;;21.97;51.40;100821.41;4916105;28;124778;-73
2021/07/30 07:10:04;;;;;;;10.68;5.95;;;;;;;22.05;51.50;100817.16;4916867;28;115786;-74
2021/07/30 07:12:31;;;;;;;11.32;5.80;;;;;;;22.11;51.47;100811.16;4915606;28;114168;-73
2021/07/30 07:14:59;;;;;;;11.85;5.70;;;;;;;22.21;51.23;100801.22;4918482;28;124006;-73
2021/07/30 07:17:26;;;;;;;8.50;5.35;;;;;;;22.30;51.06;100800.38;4913913;28;123514;-72
2021/07/30 07:19:53;;;;;;;9.98;5.45;;;;;;;22.37;50.83;100799.78;4916458;28;113250;-75
2021/07/30 07:22:20;;;;;;;9.73;5.55;;;;;;;22.42;50.70;100797.50;4912259;28;112840;-75
2021/07/30 07:24:49;;;;;;;9.02;5.88;;;;;;;22.40;50.80;100792.25;4923184;28;123587;-72
2021/07/30 07:27:16;;;;;;;8.43;5.30;;;;;;;22.45;50.75;100797.19;4922348;28;124016;-72
2021/07/30 07:29:43;;;;;;;7.53;4.93;;;;;;;22.48;50.37;100788.81;4929670;28;113811;-73
2021/07/30 07:32:11;;;;;;;8.50;5.05;;;;;;;22.49;50.33;100788.66;4929267;28;114055;-74
2021/07/30 07:34:39;;;;;;;9.52;5.47;;;;;;;22.51;50.40;100785.84;4931929;28;124309;-74
2021/07/30 07:37:07;;;;;;;10.38;5.18;;;;;;;22.57;50.37;100779.81;4931771;28;123360;-73
2021/07/30 07:39:35;;;;;;;7.53;4.50;;;;;;;22.62;50.28;100782.94;4934927;28;113501;-72
2021/07/30 07:42:02;;;;;;;9.82;5.03;;;;;;;22.70;50.67;100780.34;4935757;28;114400;-72
2021/07/30 07:44:29;;;;;;;7.93;4.78;;;;;;;22.82;50.44;100780.13;4935726;28;124554;-73
2021/07/30 07:46:58;;;;;;;6.78;4.70;;;;;;;22.93;50.65;100779.94;4937230;28;124240;-74
2021/07/30 07:49:26;;;;;;;7.72;4.60;;;;;;;23.03;50.49;100780.72;4927887;28;114759;-73
2021/07/30 07:51:54;;;;;;;7.30;5.22;;;;;;;23.13;50.20;100776.13;4933514;28;114160;-73
2021/07/30 07:54:41;;;;;;;7.90;4.18;;;;;;;23.26;50.41;100780.31;4915225;28;124301;-78
2021/07/30 07:57:08;;;;;;;7.13;4.38;;;;;;;23.35;50.05;100779.38;4907204;28;123360;-73
2021/07/30 07:59:37;;;;;;;6.78;4.07;;;;;;;23.42;49.51;100764.25;4914935;28;114293;-71
2021/07/30 08:02:08;;;;;;;7.18;4.50;;;;;;;23.47;49.41;100761.06;4927641;28;114783;-72
2021/07/30 08:04:35;;;;;;;7.03;4.20;;;;;;;23.54;49.17;100761.31;4920870;28;123213;-72
2021/07/30 08:07:03;;;;;;;7.22;3.85;;;;;;;23.59;49.14;100759.00;4933943;28;123367;-72
2021/07/30 08:09:30;;;;;;;6.35;4.50;;;;;;;23.64;48.73;100767.47;4934301;28;114941;-72
2021/07/30 08:11:58;;;;;;;6.35;4.25;;;;;;;23.70;48.76;100764.16;4923823;28;113746;-72
2021/07/30 08:14:25;;;;;;;8.70;4.43;;;;;;;23.75;48.51;100764.50;4931489;28;124533;-73
2021/07/30 08:16:53;;;;;;;8.95;3.60;;;;;;;23.79;48.70;100768.66;4926209;28;123281;-72
2021/07/30 08:19:21;;;;;;;8.55;4.03;;;;;;;23.85;48.50;100759.91;4922127;28;113314;-72
2021/07/30 08:21:48;;;;;;;6.55;4.15;;;;;;;23.94;48.43;100758.13;4918798;28;114337;-73
2021/07/30 08:24:15;;;;;;;9.30;4.40;;;;;;;24.04;48.60;100763.44;4922020;28;123460;-72
2021/07/30 08:26:42;;;;;;;8.57;4.25;;;;;;;24.17;48.78;100757.59;4929893;28;124450;-71
2021/07/30 08:29:10;;;;;;;9.07;4.53;;;;;;;24.33;48.67;100754.97;4934075;28;114713;-73
2021/07/30 08:31:38;;;;;;;6.10;4.25;;;;;;;24.46;48.02;100746.41;4935707;28;112224;-72
2021/07/30 08:34:05;;;;;;;7.07;3.72;;;;;;;24.59;47.79;100746.81;4924155;28;124418;-72
2021/07/30 08:36:32;;;;;;;4.70;3.70;;;;;;;24.72;47.79;100745.53;4924004;28;123415;-72
2021/07/30 08:39:00;;;;;;;6.18;4.07;;;;;;;24.87;47.34;100743.88;4931662;28;113563;-75
2021/07/30 08:41:27;;;;;;;5.93;4.03;;;;;;;24.98;47.12;100740.84;4921254;28;113422;-73
2021/07/30 08:43:55;;;;;;;6.82;4.18;;;;;;;25.05;46.71;100741.91;4929971;28;124153;-73
2021/07/30 08:46:24;;;;;;;7.40;4.10;;;;;;;25.10;46.47;100743.25;4933993;28;123339;-73
2021/07/30 08:48:53;;;;;;;5.53;3.63;;;;;;;25.19;46.47;100736.84;4932258;28;114321;-73
2021/07/30 08:51:22;;;;;;;5.47;3.33;;;;;;;25.29;46.59;100732.13;4922112;28;114555;-72
2021/07/30 08:53:49;;;;;;;5.18;3.17;;;;;;;25.43;46.33;100739.59;4906967;28;123474;-69
2021/07/30 08:56:17;;;;;;;5.28;3.20;;;;;;;25.56;46.20;100738.22;4937747;28;123022;-70
2021/07/30 08:58:45;;;;;;;6.78;3.30;;;;;;;25.67;45.54;100729.75;4933603;28;113835;-73
2021/07/30 09:01:13;;;;;;;6.70;3.30;;;;;;;25.76;44.78;100731.44;4930388;28;114505;-73
2021/07/30 09:03:43;;;;;;;7.07;3.13;;;;;;;25.86;44.85;100738.56;4929519;28;123997;-74
2021/07/30 09:06:22;;;;;;;5.13;2.95;;;;;;;25.97;44.67;100730.09;4922239;28;123258;-73
2021/07/30 09:09:01;;;;;;;4.43;2.78;;;;;;;26.09;44.73;100728.72;4915790;28;113559;-73
2021/07/30 09:11:39;;;;;;;5.75;2.47;;;;;;;26.24;44.34;100726.13;4928107;28;113101;-73
2021/07/30 09:14:08;;;;;;;4.30;2.33;;;;;;;26.36;44.17;100722.00;4936497;28;123209;-73
2021/07/30 09:16:52;;;;;;;3.95;2.40;;;;;;;26.49;44.63;100707.03;4928668;28;123645;-73
2021/07/30 09:19:22;;;;;;;5.93;2.60;;;;;;;26.64;44.27;100721.56;4927659;28;113489;-73
2021/07/30 09:22:13;;;;;;;5.15;2.50;;;;;;;26.74;44.17;100705.03;4909471;28;113493;-77
2021/07/30 09:24:42;;;;;;;6.25;2.65;;;;;;;26.85;43.59;100707.38;4912576;28;123280;-73
2021/07/30 09:27:11;;;;;;;4.13;2.42;;;;;;;26.95;43.52;100707.13;4933746;28;124373;-73
2021/07/30 09:29:39;;;;;;;6.97;2.20;;;;;;;27.06;43.20;100705.88;4933501;28;114103;-74
2021/07/30 09:32:12;;;;;;;3.58;2.05;;;;;;;27.16;42.38;100698.31;4924521;28;113087;-73
2021/07/30 09:34:41;;;;;;;4.93;2.20;;;;;;;27.23;42.22;100699.28;4933255;28;124042;-76
2021/07/30 09:37:10;;;;;;;4.72;2.35;;;;;;;27.30;42.73;100689.41;4934197;28;123101;-74
2021/07/30 09:39:39;;;;;;;4.25;2.10;;;;;;;27.40;42.64;100697.31;4923620;28;115693;-73
2021/07/30 09:42:11;;;;;;;4.13;2.00;;;;;;;27.49;42.04;100693.47;4929802;28;114868;-74
2021/07/30 09:44:41;;;;;;;4.75;2.10;;;;;;;27.56;41.55;100677.28;4932388;28;123950;-74
2021/07/30 09:47:09;;;;;;;2.80;2.00;;;;;;;27.60;41.21;100684.03;4933895;28;123942;-74
2021/07/30 09:49:38;;;;;;;3.53;1.70;;;;;;;27.59;40.82;100676.91;4933954;28;113957;-74
2021/07/30 09:52:10;;;;;;;3.53;2.10;;;;;;;27.58;41.06;100680.66;4944368;28;112464;-74
2021/07/30 09:55:07;;;;;;;3.88;1.90;;;;;;;27.62;41.41;100673.81;4954741;28;123620;-73
2021/07/30 09:57:36;;;;;;;2.92;2.00;;;;;;;27.71;41.71;100664.53;4930718;28;123589;-74
2021/07/30 10:00:05;;;;;;;4.43;2.15;;;;;;;27.86;41.25;100660.97;4919167;28;114550;-74
2021/07/30 10:02:34;;;;;;;4.75;1.88;;;;;;;27.99;41.10;100661.22;4929064;28;112621;-74
2021/07/30 10:05:05;;;;;;;3.83;2.03;;;;;;;28.10;41.13;100647.09;4923219;28;124425;-73
2021/07/30 10:07:34;;;;;;;4.07;1.98;;;;;;;28.21;40.94;100636.78;4936353;28;124227;-74
2021/07/30 10:12:47;;;;;;;2.42;1.77;;;;;;;28.39;40.33;100648.13;4933727;28;113449;-74
2021/07/30 10:15:15;;;;;;;3.03;2.13;;;;;;;28.42;39.98;100641.44;4932985;28;123878;-75
2021/07/30 10:17:55;;;;;;;3.97;1.90;;;;;;;28.41;39.29;100626.97;4941747;28;125200;-73
2021/07/30 10:20:26;;;;;;;3.85;1.98;;;;;;;28.43;39.83;100624.91;4956686;28;115151;-74
2021/07/30 10:23:00;;;;;;;3.25;1.80;;;;;;;28.46;39.67;100624.53;4937096;28;114034;-72
2021/07/30 10:25:37;;;;;;;3.67;2.10;;;;;;;28.48;39.37;100622.44;4904785;28;123835;-73
2021/07/30 10:28:08;;;;;;;4.03;1.98;;;;;;;28.49;39.37;100629.56;4915040;28;123853;-74
2021/07/30 10:30:57;;;;;;;2.58;1.90;;;;;;;28.56;39.49;100628.81;4915006;28;114967;-74
2021/07/30 10:33:31;;;;;;;3.92;1.98;;;;;;;28.65;39.52;100622.22;4917161;28;115424;-74
2021/07/30 10:35:59;;;;;;;3.10;1.83;;;;;;;28.76;39.79;100618.97;4926448;28;123900;-77
2021/07/30 10:38:27;;;;;;;2.45;1.92;;;;;;;28.86;39.72;100614.06;4930011;28;124001;-74
2021/07/30 10:41:06;;;;;;;3.47;2.15;;;;;;;28.87;38.93;100602.09;4935328;28;114210;-76
2021/07/30 10:43:49;;;;;;;2.13;1.80;;;;;;;28.82;39.05;100601.00;4936763;28;114209;-75
2021/07/30 10:46:22;;;;;;;2.58;1.70;;;;;;;28.80;38.90;100603.09;4922968;28;124138;-76
2021/07/30 10:48:55;;;;;;;2.20;1.73;;;;;;;28.82;38.86;100590.09;4930219;28;123743;-76
2021/07/30 10:51:24;;;;;;;3.97;1.88;;;;;;;28.84;38.62;100597.06;4942932;28;114316;-77
2021/07/30 10:53:53;;;;;;;3.97;2.03;;;;;;;28.83;38.58;100598.09;4928626;28;114104;-76
2021/07/30 10:56:20;;;;;;;3.92;2.08;;;;;;;28.83;38.56;100600.81;4929626;28;122920;-75
2021/07/30 10:58:52;;;;;;;6.05;2.20;;;;;;;28.86;38.68;100605.06;4929509;28;123754;-73
2021/07/30 11:01:29;;;;;;;4.40;2.25;;;;;;;28.91;38.94;100600.69;4935578;28;114147;-73
2021/07/30 11:03:58;;;;;;;4.30;1.90;;;;;;;28.96;38.83;100596.53;4927140;28;114070;-74
2021/07/30 11:06:50;;;;;;;3.40;1.90;;;;;;;28.99;38.13;100596.13;4924716;28;124462;-73
2021/07/30 11:09:18;;;;;;;2.67;2.10;;;;;;;29.02;38.46;100587.56;4927306;28;123752;-74
2021/07/30 11:11:47;;;;;;;3.15;2.10;;;;;;;29.07;38.55;100587.81;4930896;28;114086;-74
2021/07/30 11:14:20;;;;;;;3.40;2.00;;;;;;;29.15;38.63;100576.78;4918448;28;112261;-74
2021/07/30 11:16:52;;;;;;;5.05;2.13;;;;;;;29.22;38.28;100580.41;4923942;28;124108;-74
2021/07/30 11:19:25;;;;;;;2.55;2.10;;;;;;;29.27;38.45;100572.50;4924400;28;124233;-74
2021/07/30 11:21:53;;;;;;;4.47;2.22;;;;;;;29.26;37.90;100581.69;4929531;28;114126;-73
2021/07/30 11:24:21;;;;;;;3.47;2.28;;;;;;;29.21;37.78;100573.25;4922419;28;115187;-73
2021/07/30 11:26:48;;;;;;;3.13;2.20;;;;;;;29.18;37.60;100568.22;4922224;28;123930;-73